createdAt,value
2023-04-04T00:00:44.721Z,22.4
2023-04-04T00:05:46.849Z,22.4
2023-04-04T00:10:49.129Z,22.3
2023-04-04T00:15:52.196Z,22.3
2023-04-04T00:26:02.670Z,22.2
2023-04-04T00:36:13.030Z,22.1
2023-04-04T00:41:15.998Z,22.1
2023-04-04T00:46:18.008Z,22.1
2023-04-04T00:51:23.504Z,22
2023-04-04T00:56:25.697Z,21.9
2023-04-04T01:01:27.827Z,21.9
2023-04-04T01:06:29.951Z,21.8
2023-04-04T01:11:32.155Z,21.8
2023-04-04T01:16:34.226Z,21.8
2023-04-04T01:21:36.494Z,21.7
2023-04-04T01:26:40.177Z,21.7
2023-04-04T01:31:42.289Z,21.6
2023-04-04T01:36:49.197Z,21.6
2023-04-04T01:41:51.425Z,21.5
2023-04-04T01:46:56.760Z,21.5
2023-04-04T01:51:58.924Z,21.4
2023-04-04T01:57:01.085Z,21.4
2023-04-04T02:02:03.201Z,21.3
2023-04-04T02:07:06.093Z,21.3
2023-04-04T02:12:08.262Z,21.3
2023-04-04T02:17:11.253Z,21.3
2023-04-04T02:22:13.490Z,21.3
2023-04-04T02:27:16.418Z,21.2
2023-04-04T02:32:18.532Z,21.2
2023-04-04T02:37:21.563Z,21.2
2023-04-04T02:42:24.504Z,21.1
2023-04-04T02:47:26.717Z,21.1
2023-04-04T02:52:28.916Z,21.1
2023-04-04T02:57:31.096Z,21
2023-04-04T03:02:34.151Z,21
2023-04-04T03:07:36.851Z,21
2023-04-04T03:12:39.011Z,21
2023-04-04T03:17:41.393Z,21
2023-04-04T03:22:44.147Z,20.9
2023-04-04T03:27:47.090Z,20.9
2023-04-04T03:32:49.225Z,20.9
2023-04-04T03:42:59.781Z,20.8
2023-04-04T03:48:01.869Z,20.8
2023-04-04T03:53:04.007Z,20.8
2023-04-04T03:58:06.255Z,20.8
2023-04-04T04:03:08.428Z,20.8
2023-04-04T04:08:10.624Z,20.8
2023-04-04T04:13:12.841Z,20.7
2023-04-04T04:18:15.715Z,20.7
2023-04-04T04:23:20.844Z,20.7
2023-04-04T04:28:23.106Z,20.6
2023-04-04T04:33:25.435Z,20.5
2023-04-04T04:38:27.662Z,20.4
2023-04-04T04:43:30.767Z,20.3
2023-04-04T04:48:32.785Z,20.3
2023-04-04T04:53:34.919Z,20.5
2023-04-04T04:58:37.085Z,20.8
2023-04-04T05:03:39.215Z,21.2
2023-04-04T05:08:41.365Z,21.6
2023-04-04T05:13:45.148Z,22.1
2023-04-04T05:18:47.310Z,22.6
2023-04-04T05:23:50.185Z,23
2023-04-04T05:28:53.089Z,23.4
2023-04-04T05:33:56.867Z,23.5
2023-04-04T05:38:59.040Z,23.6
2023-04-04T05:44:02.888Z,23.6
2023-04-04T05:49:05.781Z,23.6
2023-04-04T05:54:08.676Z,23.6
2023-04-04T05:59:10.938Z,23.5
2023-04-04T06:04:13.099Z,23.4
2023-04-04T06:09:15.253Z,23.4
2023-04-04T06:14:17.403Z,23.3
2023-04-04T06:19:21.423Z,23.2
2023-04-04T06:24:23.975Z,23.1
2023-04-04T06:29:26.898Z,23
2023-04-04T06:34:30.628Z,22.9
2023-04-04T06:39:32.782Z,22.7
2023-04-04T06:44:37.279Z,22.6
2023-04-04T06:49:40.906Z,22.5
2023-04-04T06:54:43.041Z,22.4
2023-04-04T06:59:47.459Z,22.3
2023-04-04T07:04:49.655Z,22.2
2023-04-04T07:09:51.822Z,22.1
2023-04-04T07:14:54.120Z,22
2023-04-04T07:19:57.894Z,21.9
2023-04-04T07:25:00.809Z,21.8
2023-04-04T07:30:07.597Z,21.8
2023-04-04T07:35:09.723Z,21.7
2023-04-04T07:40:12.667Z,21.6
2023-04-04T07:45:15.610Z,21.6
2023-04-04T07:50:17.757Z,21.5
2023-04-04T07:55:19.887Z,21.5
2023-04-04T08:00:22.283Z,21.5
2023-04-04T08:05:24.191Z,21.5
2023-04-04T08:10:27.189Z,21.5
2023-04-04T08:15:34.277Z,21.6
2023-04-04T08:20:41.250Z,21.6
2023-04-04T08:25:47.897Z,21.5
2023-04-04T08:30:50.812Z,21.5
2023-04-04T08:35:52.962Z,21.6
2023-04-04T08:40:55.188Z,21.5
2023-04-04T08:45:57.399Z,21.5
2023-04-04T08:50:59.517Z,21.4
2023-04-04T08:56:02.497Z,21.4
2023-04-04T09:01:04.782Z,21.3
2023-04-04T09:06:07.629Z,21.3
2023-04-04T09:11:09.762Z,21.3
2023-04-04T09:16:11.939Z,21.2
2023-04-04T09:21:15.539Z,21.2
2023-04-04T09:26:17.679Z,21.1
2023-04-04T09:31:20.583Z,21.1
2023-04-04T09:36:24.320Z,21.1
2023-04-04T09:41:27.205Z,21.1
2023-04-04T09:46:29.616Z,21
2023-04-04T09:51:32.396Z,21
2023-04-04T09:56:34.542Z,20.9
2023-04-04T10:01:37.563Z,20.9
2023-04-04T10:06:40.346Z,20.9
2023-04-04T10:11:45.681Z,20.8
2023-04-04T10:16:47.893Z,20.8
2023-04-04T10:21:50.752Z,20.8
2023-04-04T10:26:53.759Z,20.8
2023-04-04T10:31:57.121Z,20.8
2023-04-04T10:36:58.256Z,20.8
2023-04-04T10:42:01.898Z,20.7
2023-04-04T10:47:05.730Z,20.8
2023-04-04T10:52:07.918Z,20.8
2023-04-04T10:57:10.070Z,20.7
2023-04-04T11:02:13.732Z,20.7
2023-04-04T11:07:15.838Z,20.6
2023-04-04T11:12:18.872Z,20.6
2023-04-04T11:17:21.849Z,20.5
2023-04-04T11:22:23.922Z,20.5
2023-04-04T11:27:26.818Z,20.5
2023-04-04T11:32:28.995Z,20.5
2023-04-04T11:37:31.074Z,20.5
2023-04-04T11:42:33.497Z,20.5
2023-04-04T11:47:35.842Z,20.5
2023-04-04T11:52:38.053Z,20.5
2023-04-04T11:57:42.560Z,20.5
2023-04-04T12:02:45.697Z,20.6
2023-04-04T12:07:52.414Z,20.5
2023-04-04T12:12:56.061Z,20.6
2023-04-04T12:17:59.011Z,20.6
2023-04-04T12:23:02.740Z,20.5
2023-04-04T12:28:05.652Z,20.5
2023-04-04T12:33:07.875Z,20.4
2023-04-04T12:38:10.049Z,20.4
2023-04-04T12:43:12.992Z,20.3
2023-04-04T12:48:15.245Z,20.4
2023-04-04T12:58:22.609Z,20.4
2023-04-04T13:03:24.796Z,20.4
2023-04-04T13:08:26.960Z,20.5
2023-04-04T13:13:33.740Z,20.5
2023-04-04T13:18:36.679Z,20.6
2023-04-04T13:23:38.784Z,20.6
2023-04-04T13:28:40.926Z,20.6
2023-04-04T13:33:44.736Z,20.7
2023-04-04T13:38:46.881Z,20.7
2023-04-04T13:43:49.079Z,20.7
2023-04-04T13:48:52.005Z,20.8
2023-04-04T13:53:55.713Z,20.8
2023-04-04T13:58:58.643Z,20.8
2023-04-04T14:04:05.353Z,20.9
2023-04-04T14:09:03.643Z,20.9
2023-04-04T14:14:07.435Z,20.9
2023-04-04T14:19:09.750Z,21
2023-04-04T14:24:11.972Z,21
2023-04-04T14:29:15.618Z,21.1
2023-04-04T14:34:17.763Z,21.1
2023-04-04T14:39:20.622Z,21.2
2023-04-04T14:44:24.277Z,21.2
2023-04-04T14:49:27.214Z,21.3
2023-04-04T14:54:30.058Z,21.4
2023-04-04T14:59:33.101Z,21.4
2023-04-04T15:04:36.132Z,21.4
2023-04-04T15:09:38.230Z,21.5
2023-04-04T15:14:41.110Z,21.5
2023-04-04T15:19:43.287Z,21.5
2023-04-04T15:24:45.535Z,21.6
2023-04-04T15:29:47.792Z,21.7
2023-04-04T15:34:50.057Z,21.8
2023-04-04T15:39:53.741Z,21.8
2023-04-04T15:44:55.945Z,21.9
2023-04-04T15:49:59.795Z,22
2023-04-04T15:55:01.867Z,22.1
2023-04-04T16:00:03.989Z,22.2
2023-04-04T16:05:06.894Z,22.3
2023-04-04T16:10:09.026Z,22.3
2023-04-04T16:15:11.236Z,22.4
2023-04-04T16:20:14.280Z,22.4
2023-04-04T16:25:16.425Z,22.4
2023-04-04T16:30:19.320Z,22.4
2023-04-04T16:35:22.330Z,22.4
2023-04-04T16:40:24.495Z,22.4
2023-04-04T16:45:26.616Z,22.3
2023-04-04T16:50:28.903Z,22.3
2023-04-04T16:55:34.026Z,22.3
2023-04-04T17:00:36.254Z,22.3
2023-04-04T17:05:38.442Z,22.3
2023-04-04T17:10:40.759Z,22.3
2023-04-04T17:15:43.588Z,22.3
2023-04-04T17:20:45.862Z,22.2
2023-04-04T17:25:48.743Z,22.2
2023-04-04T17:30:50.872Z,22.3
2023-04-04T17:35:53.142Z,22.3
2023-04-04T17:40:55.911Z,22.4
2023-04-04T17:45:58.933Z,22.5
2023-04-04T17:51:01.098Z,22.7
2023-04-04T17:56:03.216Z,22.9
2023-04-04T18:01:05.509Z,23.3
2023-04-04T18:06:09.180Z,23.6
2023-04-04T18:11:11.408Z,23.9
2023-04-04T18:16:15.108Z,24.1
2023-04-04T18:21:17.306Z,24.2
2023-04-04T18:26:19.340Z,24.2
2023-04-04T18:31:21.599Z,24.3
2023-04-04T18:36:26.006Z,24.3
2023-04-04T18:41:28.137Z,24.2
2023-04-04T18:46:30.315Z,24.2
2023-04-04T18:51:32.467Z,24.2
2023-04-04T18:56:37.162Z,24.1
2023-04-04T19:01:38.440Z,24
2023-04-04T19:06:42.220Z,24
2023-04-04T19:11:44.498Z,23.9
2023-04-04T19:16:48.212Z,23.8
2023-04-04T19:21:50.312Z,23.7
2023-04-04T19:26:57.198Z,23.6
2023-04-04T19:32:00.178Z,23.5
2023-04-04T19:37:02.339Z,23.5
2023-04-04T19:42:04.473Z,23.4
2023-04-04T19:47:06.702Z,23.4
2023-04-04T19:52:08.900Z,23.3
2023-04-04T19:57:12.609Z,23.3
2023-04-04T20:02:16.299Z,23.2
2023-04-04T20:07:19.194Z,23.2
2023-04-04T20:17:30.426Z,23.1
2023-04-04T20:22:34.824Z,23.1
2023-04-04T20:27:36.953Z,23.1
2023-04-04T20:32:40.751Z,23.1
2023-04-04T20:37:42.989Z,23.1
2023-04-04T20:42:45.098Z,23.1
2023-04-04T20:47:49.555Z,23
2023-04-04T20:52:51.802Z,22.9
2023-04-04T21:03:02.240Z,22.9
2023-04-04T21:08:04.342Z,22.9
2023-04-04T21:13:06.552Z,22.9
2023-04-04T21:18:08.800Z,22.9
2023-04-04T21:23:11.076Z,22.8
2023-04-04T21:28:13.195Z,22.8
2023-04-04T21:33:15.314Z,22.8
2023-04-04T21:38:18.357Z,22.8
2023-04-04T21:43:21.231Z,22.8
2023-04-04T21:48:23.472Z,22.9
2023-04-04T21:53:26.401Z,22.9
2023-04-04T21:58:29.350Z,22.9
2023-04-04T22:03:36.242Z,22.9
2023-04-04T22:08:39.196Z,22.9
2023-04-04T22:13:42.141Z,22.8
2023-04-04T22:18:45.104Z,22.8
2023-04-04T22:23:48.013Z,22.8
2023-04-04T22:28:50.151Z,22.8
2023-04-04T22:33:53.030Z,22.7
2023-04-04T22:38:55.184Z,22.6
2023-04-04T22:43:57.384Z,22.6
2023-04-04T22:48:59.577Z,22.5
2023-04-04T22:54:01.977Z,22.5
2023-04-04T22:59:04.290Z,22.4
2023-04-04T23:04:06.576Z,22.3
2023-04-04T23:09:08.811Z,22.3
2023-04-04T23:14:10.883Z,22.3
2023-04-04T23:19:13.122Z,22.2
2023-04-04T23:24:15.299Z,22.2
2023-04-04T23:29:18.226Z,22.1
2023-04-04T23:34:21.111Z,22.1
2023-04-04T23:39:24.027Z,22
2023-04-04T23:44:26.260Z,22
2023-04-04T23:49:28.396Z,22
2023-04-04T23:54:30.575Z,21.9
2023-04-04T23:59:32.697Z,21.9
